sensor_id;sensor_type;location;lat;lon;timestamp;P1;durP1;ratioP1;P2;durP2;ratioP2
83214;SDS011;73102;46.294;18.206;2024-03-02T00:00:08;0.05;;;0.05;;
83214;SDS011;73102;46.294;18.206;2024-03-02T00:01:32;6.03;;;2.83;;
83214;SDS011;73102;46.294;18.206;2024-03-02T00:02:52;0.03;;;0.03;;
83214;SDS011;73102;46.294;18.206;2024-03-02T00:04:13;0.20;;;0.20;;
83214;SDS011;73102;46.294;18.206;2024-03-02T00:05:32;0.10;;;0.10;;
83214;SDS011;73102;46.294;18.206;2024-03-02T00:06:53;2.25;;;2.15;;
83214;SDS011;73102;46.294;18.206;2024-03-02T00:08:22;0.90;;;0.90;;
83214;SDS011;73102;46.294;18.206;2024-03-02T00:09:44;3.30;;;1.58;;
83214;SDS011;73102;46.294;18.206;2024-03-02T00:11:04;0.00;;;0.00;;
83214;SDS011;73102;46.294;18.206;2024-03-02T00:12:24;0.43;;;0.43;;
83214;SDS011;73102;46.294;18.206;2024-03-02T00:16:37;0.28;;;0.28;;
83214;SDS011;73102;46.294;18.206;2024-03-02T00:17:58;0.20;;;0.20;;
83214;SDS011;73102;46.294;18.206;2024-03-02T00:19:18;1.08;;;1.08;;
83214;SDS011;73102;46.294;18.206;2024-03-02T00:20:39;0.68;;;0.68;;
83214;SDS011;73102;46.294;18.206;2024-03-02T00:22:00;0.00;;;0.00;;
83214;SDS011;73102;46.294;18.206;2024-03-02T00:23:20;0.00;;;0.00;;
83214;SDS011;73102;46.294;18.206;2024-03-02T00:24:41;0.00;;;0.00;;
83214;SDS011;73102;46.294;18.206;2024-03-02T00:27:22;0.00;;;0.00;;
83214;SDS011;73102;46.294;18.206;2024-03-02T00:28:44;0.00;;;0.00;;
83214;SDS011;73102;46.294;18.206;2024-03-02T00:30:49;0.52;;;0.52;;
83214;SDS011;73102;46.294;18.206;2024-03-02T00:31:48;0.10;;;0.10;;
83214;SDS011;73102;46.294;18.206;2024-03-02T00:33:08;0.35;;;0.35;;
83214;SDS011;73102;46.294;18.206;2024-03-02T00:34:28;1.65;;;1.40;;
83214;SDS011;73102;46.294;18.206;2024-03-02T00:35:49;0.10;;;0.10;;
83214;SDS011;73102;46.294;18.206;2024-03-02T00:37:09;0.20;;;0.20;;
83214;SDS011;73102;46.294;18.206;2024-03-02T00:38:30;0.30;;;0.30;;
83214;SDS011;73102;46.294;18.206;2024-03-02T00:39:51;0.20;;;0.20;;
83214;SDS011;73102;46.294;18.206;2024-03-02T00:41:15;0.10;;;0.10;;
83214;SDS011;73102;46.294;18.206;2024-03-02T00:42:35;0.00;;;0.00;;
83214;SDS011;73102;46.294;18.206;2024-03-02T00:44:02;7.68;;;6.28;;
83214;SDS011;73102;46.294;18.206;2024-03-02T00:45:24;0.80;;;0.80;;
83214;SDS011;73102;46.294;18.206;2024-03-02T00:46:45;1.55;;;1.45;;
83214;SDS011;73102;46.294;18.206;2024-03-02T00:48:05;0.00;;;0.00;;
83214;SDS011;73102;46.294;18.206;2024-03-02T00:49:26;0.35;;;0.35;;
83214;SDS011;73102;46.294;18.206;2024-03-02T00:50:50;0.00;;;0.00;;
83214;SDS011;73102;46.294;18.206;2024-03-02T00:52:11;3.22;;;2.50;;
83214;SDS011;73102;46.294;18.206;2024-03-02T00:53:32;0.65;;;0.65;;
83214;SDS011;73102;46.294;18.206;2024-03-02T00:54:53;0.00;;;0.00;;
83214;SDS011;73102;46.294;18.206;2024-03-02T00:56:17;0.75;;;0.75;;
83214;SDS011;73102;46.294;18.206;2024-03-02T00:57:37;0.50;;;0.50;;
83214;SDS011;73102;46.294;18.206;2024-03-02T00:58:58;2.30;;;2.05;;
83214;SDS011;73102;46.294;18.206;2024-03-02T01:00:18;0.00;;;0.00;;
83214;SDS011;73102;46.294;18.206;2024-03-02T01:01:38;0.45;;;0.45;;
83214;SDS011;73102;46.294;18.206;2024-03-02T01:02:59;0.90;;;0.90;;
83214;SDS011;73102;46.294;18.206;2024-03-02T01:04:20;0.00;;;0.00;;
83214;SDS011;73102;46.294;18.206;2024-03-02T01:05:42;0.10;;;0.10;;
83214;SDS011;73102;46.294;18.206;2024-03-02T01:07:03;1.15;;;1.13;;
83214;SDS011;73102;46.294;18.206;2024-03-02T01:08:23;0.00;;;0.00;;
83214;SDS011;73102;46.294;18.206;2024-03-02T01:11:04;1.92;;;1.83;;
83214;SDS011;73102;46.294;18.206;2024-03-02T01:12:24;0.85;;;0.85;;
83214;SDS011;73102;46.294;18.206;2024-03-02T01:13:44;0.10;;;0.10;;
83214;SDS011;73102;46.294;18.206;2024-03-02T01:15:05;0.10;;;0.10;;
83214;SDS011;73102;46.294;18.206;2024-03-02T01:16:27;11.50;;;9.13;;
83214;SDS011;73102;46.294;18.206;2024-03-02T01:17:47;7.57;;;1.35;;
83214;SDS011;73102;46.294;18.206;2024-03-02T01:19:07;2.90;;;2.70;;
83214;SDS011;73102;46.294;18.206;2024-03-02T01:20:29;7.32;;;2.22;;
83214;SDS011;73102;46.294;18.206;2024-03-02T01:21:49;1.85;;;1.08;;
83214;SDS011;73102;46.294;18.206;2024-03-02T01:23:09;3.55;;;2.90;;
83214;SDS011;73102;46.294;18.206;2024-03-02T01:24:30;0.00;;;0.00;;
83214;SDS011;73102;46.294;18.206;2024-03-02T01:25:51;1.48;;;1.40;;
83214;SDS011;73102;46.294;18.206;2024-03-02T01:27:11;0.00;;;0.00;;
83214;SDS011;73102;46.294;18.206;2024-03-02T01:28:31;1.13;;;1.13;;
83214;SDS011;73102;46.294;18.206;2024-03-02T01:29:51;0.00;;;0.00;;
83214;SDS011;73102;46.294;18.206;2024-03-02T01:31:11;1.38;;;1.27;;
83214;SDS011;73102;46.294;18.206;2024-03-02T01:32:32;0.08;;;0.08;;
83214;SDS011;73102;46.294;18.206;2024-03-02T01:33:52;0.20;;;0.20;;
83214;SDS011;73102;46.294;18.206;2024-03-02T01:35:12;1.85;;;1.10;;
83214;SDS011;73102;46.294;18.206;2024-03-02T01:36:34;0.00;;;0.00;;
83214;SDS011;73102;46.294;18.206;2024-03-02T01:37:54;0.47;;;0.47;;
83214;SDS011;73102;46.294;18.206;2024-03-02T01:39:16;2.78;;;2.55;;
83214;SDS011;73102;46.294;18.206;2024-03-02T01:40:36;0.28;;;0.28;;
83214;SDS011;73102;46.294;18.206;2024-03-02T01:41:57;1.45;;;1.35;;
83214;SDS011;73102;46.294;18.206;2024-03-02T01:43:18;0.47;;;0.47;;
83214;SDS011;73102;46.294;18.206;2024-03-02T01:44:38;0.00;;;0.00;;
83214;SDS011;73102;46.294;18.206;2024-03-02T01:45:59;0.00;;;0.00;;
83214;SDS011;73102;46.294;18.206;2024-03-02T01:47:19;0.25;;;0.25;;
83214;SDS011;73102;46.294;18.206;2024-03-02T01:48:39;1.67;;;1.45;;
83214;SDS011;73102;46.294;18.206;2024-03-02T01:50:00;0.00;;;0.00;;
83214;SDS011;73102;46.294;18.206;2024-03-02T01:51:20;5.13;;;2.85;;
83214;SDS011;73102;46.294;18.206;2024-03-02T01:52:40;0.00;;;0.00;;
83214;SDS011;73102;46.294;18.206;2024-03-02T01:54:03;0.00;;;0.00;;
83214;SDS011;73102;46.294;18.206;2024-03-02T01:55:23;1.80;;;1.40;;
83214;SDS011;73102;46.294;18.206;2024-03-02T01:56:44;0.22;;;0.22;;
83214;SDS011;73102;46.294;18.206;2024-03-02T01:58:04;0.00;;;0.00;;
83214;SDS011;73102;46.294;18.206;2024-03-02T01:59:25;1.05;;;1.00;;
83214;SDS011;73102;46.294;18.206;2024-03-02T02:00:46;1.65;;;1.65;;
83214;SDS011;73102;46.294;18.206;2024-03-02T02:02:06;0.10;;;0.10;;
83214;SDS011;73102;46.294;18.206;2024-03-02T02:03:27;6.18;;;1.55;;
83214;SDS011;73102;46.294;18.206;2024-03-02T02:04:47;1.00;;;1.00;;
83214;SDS011;73102;46.294;18.206;2024-03-02T02:06:07;0.20;;;0.20;;
83214;SDS011;73102;46.294;18.206;2024-03-02T02:07:28;0.95;;;0.95;;
83214;SDS011;73102;46.294;18.206;2024-03-02T02:08:48;10.00;;;8.15;;
83214;SDS011;73102;46.294;18.206;2024-03-02T02:10:12;2.33;;;2.13;;
83214;SDS011;73102;46.294;18.206;2024-03-02T02:11:32;0.22;;;0.22;;
83214;SDS011;73102;46.294;18.206;2024-03-02T02:12:52;0.55;;;0.52;;
83214;SDS011;73102;46.294;18.206;2024-03-02T02:14:12;1.23;;;0.75;;
83214;SDS011;73102;46.294;18.206;2024-03-02T02:15:33;0.00;;;0.00;;
83214;SDS011;73102;46.294;18.206;2024-03-02T02:16:55;0.00;;;0.00;;
83214;SDS011;73102;46.294;18.206;2024-03-02T02:18:15;0.00;;;0.00;;
83214;SDS011;73102;46.294;18.206;2024-03-02T02:19:35;0.00;;;0.00;;
83214;SDS011;73102;46.294;18.206;2024-03-02T02:20:56;0.00;;;0.00;;
83214;SDS011;73102;46.294;18.206;2024-03-02T02:22:16;0.00;;;0.00;;
83214;SDS011;73102;46.294;18.206;2024-03-02T02:23:36;0.00;;;0.00;;
83214;SDS011;73102;46.294;18.206;2024-03-02T02:24:56;3.35;;;1.75;;
83214;SDS011;73102;46.294;18.206;2024-03-02T02:26:17;0.20;;;0.20;;
83214;SDS011;73102;46.294;18.206;2024-03-02T02:27:37;0.00;;;0.00;;
83214;SDS011;73102;46.294;18.206;2024-03-02T02:28:58;0.90;;;0.90;;
83214;SDS011;73102;46.294;18.206;2024-03-02T02:30:22;0.10;;;0.10;;
83214;SDS011;73102;46.294;18.206;2024-03-02T02:31:43;0.00;;;0.00;;
83214;SDS011;73102;46.294;18.206;2024-03-02T02:33:03;0.52;;;0.52;;
83214;SDS011;73102;46.294;18.206;2024-03-02T02:34:23;0.00;;;0.00;;
83214;SDS011;73102;46.294;18.206;2024-03-02T02:35:44;0.28;;;0.28;;
83214;SDS011;73102;46.294;18.206;2024-03-02T02:37:03;3.00;;;2.88;;
83214;SDS011;73102;46.294;18.206;2024-03-02T02:38:24;0.63;;;0.63;;
83214;SDS011;73102;46.294;18.206;2024-03-02T02:39:44;2.38;;;1.17;;
83214;SDS011;73102;46.294;18.206;2024-03-02T02:41:06;0.80;;;0.80;;
83214;SDS011;73102;46.294;18.206;2024-03-02T02:42:27;1.00;;;0.75;;
83214;SDS011;73102;46.294;18.206;2024-03-02T02:43:47;0.55;;;0.55;;
83214;SDS011;73102;46.294;18.206;2024-03-02T02:45:07;0.75;;;0.75;;
83214;SDS011;73102;46.294;18.206;2024-03-02T02:46:28;0.00;;;0.00;;
83214;SDS011;73102;46.294;18.206;2024-03-02T02:47:49;0.00;;;0.00;;
83214;SDS011;73102;46.294;18.206;2024-03-02T02:49:09;1.45;;;1.38;;
83214;SDS011;73102;46.294;18.206;2024-03-02T02:50:29;0.03;;;0.03;;
83214;SDS011;73102;46.294;18.206;2024-03-02T02:51:50;0.00;;;0.00;;
83214;SDS011;73102;46.294;18.206;2024-03-02T02:53:10;1.25;;;1.25;;
83214;SDS011;73102;46.294;18.206;2024-03-02T02:54:30;0.00;;;0.00;;
83214;SDS011;73102;46.294;18.206;2024-03-02T02:55:50;0.00;;;0.00;;
83214;SDS011;73102;46.294;18.206;2024-03-02T02:57:10;0.00;;;0.00;;
83214;SDS011;73102;46.294;18.206;2024-03-02T02:58:30;0.03;;;0.03;;
83214;SDS011;73102;46.294;18.206;2024-03-02T02:59:50;0.30;;;0.30;;
83214;SDS011;73102;46.294;18.206;2024-03-02T03:01:10;0.15;;;0.15;;
83214;SDS011;73102;46.294;18.206;2024-03-02T03:02:31;0.38;;;0.38;;
83214;SDS011;73102;46.294;18.206;2024-03-02T03:03:51;1.77;;;1.67;;
83214;SDS011;73102;46.294;18.206;2024-03-02T03:05:12;0.57;;;0.57;;
83214;SDS011;73102;46.294;18.206;2024-03-02T03:06:33;1.00;;;0.90;;
83214;SDS011;73102;46.294;18.206;2024-03-02T03:07:53;0.00;;;0.00;;
83214;SDS011;73102;46.294;18.206;2024-03-02T03:09:13;0.00;;;0.00;;
83214;SDS011;73102;46.294;18.206;2024-03-02T03:10:34;1.58;;;1.55;;
83214;SDS011;73102;46.294;18.206;2024-03-02T03:11:54;0.28;;;0.28;;
83214;SDS011;73102;46.294;18.206;2024-03-02T03:13:14;0.55;;;0.55;;
83214;SDS011;73102;46.294;18.206;2024-03-02T03:14:34;0.10;;;0.10;;
83214;SDS011;73102;46.294;18.206;2024-03-02T03:15:55;1.15;;;0.90;;
83214;SDS011;73102;46.294;18.206;2024-03-02T03:17:15;0.17;;;0.17;;
83214;SDS011;73102;46.294;18.206;2024-03-02T03:19:57;0.00;;;0.00;;
83214;SDS011;73102;46.294;18.206;2024-03-02T03:21:18;1.08;;;0.93;;
83214;SDS011;73102;46.294;18.206;2024-03-02T03:22:38;1.63;;;1.52;;
83214;SDS011;73102;46.294;18.206;2024-03-02T03:23:58;4.90;;;2.72;;
83214;SDS011;73102;46.294;18.206;2024-03-02T03:25:18;0.00;;;0.00;;
83214;SDS011;73102;46.294;18.206;2024-03-02T03:26:39;0.38;;;0.38;;
83214;SDS011;73102;46.294;18.206;2024-03-02T03:27:59;0.75;;;0.55;;
83214;SDS011;73102;46.294;18.206;2024-03-02T03:29:20;2.90;;;1.60;;
83214;SDS011;73102;46.294;18.206;2024-03-02T03:30:40;0.00;;;0.00;;
83214;SDS011;73102;46.294;18.206;2024-03-02T03:32:00;1.58;;;0.98;;
83214;SDS011;73102;46.294;18.206;2024-03-02T03:33:21;4.38;;;3.03;;
83214;SDS011;73102;46.294;18.206;2024-03-02T03:34:41;0.00;;;0.00;;
83214;SDS011;73102;46.294;18.206;2024-03-02T03:36:01;7.50;;;7.03;;
83214;SDS011;73102;46.294;18.206;2024-03-02T03:37:22;0.20;;;0.20;;
83214;SDS011;73102;46.294;18.206;2024-03-02T03:38:44;0.65;;;0.65;;
83214;SDS011;73102;46.294;18.206;2024-03-02T03:40:05;0.00;;;0.00;;
83214;SDS011;73102;46.294;18.206;2024-03-02T03:41:29;0.20;;;0.20;;
83214;SDS011;73102;46.294;18.206;2024-03-02T03:42:49;0.00;;;0.00;;
83214;SDS011;73102;46.294;18.206;2024-03-02T03:44:10;2.92;;;1.65;;
83214;SDS011;73102;46.294;18.206;2024-03-02T03:45:30;2.20;;;1.30;;
83214;SDS011;73102;46.294;18.206;2024-03-02T03:46:50;0.40;;;0.40;;
83214;SDS011;73102;46.294;18.206;2024-03-02T03:48:11;1.00;;;1.00;;
83214;SDS011;73102;46.294;18.206;2024-03-02T03:49:31;0.00;;;0.00;;
83214;SDS011;73102;46.294;18.206;2024-03-02T03:52:11;0.47;;;0.47;;
83214;SDS011;73102;46.294;18.206;2024-03-02T03:53:32;1.25;;;1.25;;
83214;SDS011;73102;46.294;18.206;2024-03-02T03:54:52;1.25;;;1.15;;
83214;SDS011;73102;46.294;18.206;2024-03-02T03:56:13;3.90;;;2.03;;
83214;SDS011;73102;46.294;18.206;2024-03-02T03:57:33;1.08;;;0.65;;
83214;SDS011;73102;46.294;18.206;2024-03-02T03:58:53;1.65;;;1.02;;
83214;SDS011;73102;46.294;18.206;2024-03-02T04:00:13;0.00;;;0.00;;
83214;SDS011;73102;46.294;18.206;2024-03-02T04:01:33;0.00;;;0.00;;
83214;SDS011;73102;46.294;18.206;2024-03-02T04:02:53;0.45;;;0.45;;
83214;SDS011;73102;46.294;18.206;2024-03-02T04:04:14;0.00;;;0.00;;
83214;SDS011;73102;46.294;18.206;2024-03-02T04:05:34;0.13;;;0.13;;
83214;SDS011;73102;46.294;18.206;2024-03-02T04:06:54;0.08;;;0.08;;
83214;SDS011;73102;46.294;18.206;2024-03-02T04:08:14;0.03;;;0.03;;
83214;SDS011;73102;46.294;18.206;2024-03-02T04:09:35;2.40;;;2.30;;
83214;SDS011;73102;46.294;18.206;2024-03-02T04:10:55;2.17;;;2.08;;
83214;SDS011;73102;46.294;18.206;2024-03-02T04:12:15;0.00;;;0.00;;
83214;SDS011;73102;46.294;18.206;2024-03-02T04:13:36;0.77;;;0.77;;
83214;SDS011;73102;46.294;18.206;2024-03-02T04:14:56;0.00;;;0.00;;
83214;SDS011;73102;46.294;18.206;2024-03-02T04:16:16;0.43;;;0.32;;
83214;SDS011;73102;46.294;18.206;2024-03-02T04:17:37;5.68;;;1.92;;
83214;SDS011;73102;46.294;18.206;2024-03-02T04:18:57;5.35;;;4.82;;
83214;SDS011;73102;46.294;18.206;2024-03-02T04:20:18;0.00;;;0.00;;
83214;SDS011;73102;46.294;18.206;2024-03-02T04:21:38;0.00;;;0.00;;
83214;SDS011;73102;46.294;18.206;2024-03-02T04:22:58;0.13;;;0.13;;
83214;SDS011;73102;46.294;18.206;2024-03-02T04:24:18;0.63;;;0.55;;
83214;SDS011;73102;46.294;18.206;2024-03-02T04:25:39;0.85;;;0.85;;
83214;SDS011;73102;46.294;18.206;2024-03-02T04:26:59;4.68;;;3.70;;
83214;SDS011;73102;46.294;18.206;2024-03-02T04:28:19;5.45;;;1.45;;
83214;SDS011;73102;46.294;18.206;2024-03-02T04:29:40;0.00;;;0.00;;
83214;SDS011;73102;46.294;18.206;2024-03-02T04:31:00;0.90;;;0.90;;
83214;SDS011;73102;46.294;18.206;2024-03-02T04:32:20;0.73;;;0.73;;
83214;SDS011;73102;46.294;18.206;2024-03-02T04:33:40;1.75;;;1.65;;
83214;SDS011;73102;46.294;18.206;2024-03-02T04:35:00;18.70;;;17.77;;
83214;SDS011;73102;46.294;18.206;2024-03-02T04:36:20;1.00;;;1.00;;
83214;SDS011;73102;46.294;18.206;2024-03-02T04:37:40;0.00;;;0.00;;
83214;SDS011;73102;46.294;18.206;2024-03-02T04:39:01;0.00;;;0.00;;
83214;SDS011;73102;46.294;18.206;2024-03-02T04:40:21;3.60;;;2.85;;
83214;SDS011;73102;46.294;18.206;2024-03-02T04:41:41;0.30;;;0.30;;
83214;SDS011;73102;46.294;18.206;2024-03-02T04:43:02;20.83;;;5.22;;
83214;SDS011;73102;46.294;18.206;2024-03-02T04:44:22;0.30;;;0.30;;
83214;SDS011;73102;46.294;18.206;2024-03-02T04:45:42;0.00;;;0.00;;
83214;SDS011;73102;46.294;18.206;2024-03-02T04:47:03;0.90;;;0.90;;
83214;SDS011;73102;46.294;18.206;2024-03-02T04:48:23;0.00;;;0.00;;
83214;SDS011;73102;46.294;18.206;2024-03-02T04:49:43;5.28;;;2.15;;
83214;SDS011;73102;46.294;18.206;2024-03-02T04:51:04;1.00;;;0.93;;
83214;SDS011;73102;46.294;18.206;2024-03-02T04:52:24;0.00;;;0.00;;
83214;SDS011;73102;46.294;18.206;2024-03-02T04:53:45;0.43;;;0.43;;
83214;SDS011;73102;46.294;18.206;2024-03-02T04:55:05;0.70;;;0.70;;
83214;SDS011;73102;46.294;18.206;2024-03-02T04:56:29;1.17;;;1.17;;
83214;SDS011;73102;46.294;18.206;2024-03-02T04:57:52;0.10;;;0.10;;
83214;SDS011;73102;46.294;18.206;2024-03-02T04:59:14;0.63;;;0.63;;
83214;SDS011;73102;46.294;18.206;2024-03-02T05:00:34;0.73;;;0.73;;
83214;SDS011;73102;46.294;18.206;2024-03-02T05:01:54;0.30;;;0.30;;
83214;SDS011;73102;46.294;18.206;2024-03-02T05:03:15;3.80;;;2.50;;
83214;SDS011;73102;46.294;18.206;2024-03-02T05:04:35;1.88;;;1.83;;
83214;SDS011;73102;46.294;18.206;2024-03-02T05:05:55;0.75;;;0.75;;
83214;SDS011;73102;46.294;18.206;2024-03-02T05:07:16;0.50;;;0.50;;
83214;SDS011;73102;46.294;18.206;2024-03-02T05:08:40;1.30;;;1.30;;
83214;SDS011;73102;46.294;18.206;2024-03-02T05:10:00;1.33;;;1.33;;
83214;SDS011;73102;46.294;18.206;2024-03-02T05:11:20;2.53;;;0.75;;
83214;SDS011;73102;46.294;18.206;2024-03-02T05:12:56;8.20;;;5.78;;
83214;SDS011;73102;46.294;18.206;2024-03-02T05:14:18;3.05;;;2.92;;
83214;SDS011;73102;46.294;18.206;2024-03-02T05:15:37;0.10;;;0.10;;
83214;SDS011;73102;46.294;18.206;2024-03-02T05:16:58;1.02;;;1.02;;
83214;SDS011;73102;46.294;18.206;2024-03-02T05:18:18;0.85;;;0.85;;
83214;SDS011;73102;46.294;18.206;2024-03-02T05:19:38;0.08;;;0.08;;
83214;SDS011;73102;46.294;18.206;2024-03-02T05:20:59;1.00;;;0.95;;
83214;SDS011;73102;46.294;18.206;2024-03-02T05:22:19;2.38;;;2.17;;
83214;SDS011;73102;46.294;18.206;2024-03-02T05:23:39;0.00;;;0.00;;
83214;SDS011;73102;46.294;18.206;2024-03-02T05:25:00;0.35;;;0.35;;
83214;SDS011;73102;46.294;18.206;2024-03-02T05:26:20;0.00;;;0.00;;
83214;SDS011;73102;46.294;18.206;2024-03-02T05:27:41;0.03;;;0.03;;
83214;SDS011;73102;46.294;18.206;2024-03-02T05:29:01;0.52;;;0.52;;
83214;SDS011;73102;46.294;18.206;2024-03-02T05:31:42;0.20;;;0.20;;
83214;SDS011;73102;46.294;18.206;2024-03-02T05:33:02;0.35;;;0.35;;
83214;SDS011;73102;46.294;18.206;2024-03-02T05:34:22;0.00;;;0.00;;
83214;SDS011;73102;46.294;18.206;2024-03-02T05:35:43;0.20;;;0.20;;
83214;SDS011;73102;46.294;18.206;2024-03-02T05:37:04;0.55;;;0.55;;
83214;SDS011;73102;46.294;18.206;2024-03-02T05:38:24;0.00;;;0.00;;
83214;SDS011;73102;46.294;18.206;2024-03-02T05:39:45;0.00;;;0.00;;
83214;SDS011;73102;46.294;18.206;2024-03-02T05:41:05;0.52;;;0.52;;
83214;SDS011;73102;46.294;18.206;2024-03-02T05:42:26;0.40;;;0.40;;
83214;SDS011;73102;46.294;18.206;2024-03-02T05:43:47;0.00;;;0.00;;
83214;SDS011;73102;46.294;18.206;2024-03-02T05:45:07;0.00;;;0.00;;
83214;SDS011;73102;46.294;18.206;2024-03-02T05:46:28;0.30;;;0.30;;
83214;SDS011;73102;46.294;18.206;2024-03-02T05:47:47;0.28;;;0.28;;
83214;SDS011;73102;46.294;18.206;2024-03-02T05:49:08;0.03;;;0.03;;
83214;SDS011;73102;46.294;18.206;2024-03-02T05:50:28;0.15;;;0.15;;
83214;SDS011;73102;46.294;18.206;2024-03-02T05:51:49;0.55;;;0.55;;
83214;SDS011;73102;46.294;18.206;2024-03-02T05:53:09;0.00;;;0.00;;
83214;SDS011;73102;46.294;18.206;2024-03-02T05:54:29;0.57;;;0.57;;
83214;SDS011;73102;46.294;18.206;2024-03-02T05:55:49;0.10;;;0.10;;
83214;SDS011;73102;46.294;18.206;2024-03-02T05:57:14;0.00;;;0.00;;
83214;SDS011;73102;46.294;18.206;2024-03-02T05:58:52;1.30;;;1.30;;
83214;SDS011;73102;46.294;18.206;2024-03-02T06:00:31;0.00;;;0.00;;
83214;SDS011;73102;46.294;18.206;2024-03-02T06:01:52;2.17;;;1.98;;
83214;SDS011;73102;46.294;18.206;2024-03-02T06:03:12;2.25;;;2.10;;
83214;SDS011;73102;46.294;18.206;2024-03-02T06:04:33;2.67;;;2.58;;
83214;SDS011;73102;46.294;18.206;2024-03-02T06:05:54;0.00;;;0.00;;
83214;SDS011;73102;46.294;18.206;2024-03-02T06:07:14;0.13;;;0.13;;
83214;SDS011;73102;46.294;18.206;2024-03-02T06:08:35;0.10;;;0.10;;
83214;SDS011;73102;46.294;18.206;2024-03-02T06:09:55;0.38;;;0.38;;
83214;SDS011;73102;46.294;18.206;2024-03-02T06:11:15;0.00;;;0.00;;
83214;SDS011;73102;46.294;18.206;2024-03-02T06:12:36;1.85;;;1.75;;
83214;SDS011;73102;46.294;18.206;2024-03-02T06:13:56;3.83;;;3.70;;
83214;SDS011;73102;46.294;18.206;2024-03-02T06:15:17;0.00;;;0.00;;
83214;SDS011;73102;46.294;18.206;2024-03-02T06:16:37;0.35;;;0.20;;
83214;SDS011;73102;46.294;18.206;2024-03-02T06:17:57;1.45;;;1.20;;
83214;SDS011;73102;46.294;18.206;2024-03-02T06:19:18;4.03;;;1.80;;
83214;SDS011;73102;46.294;18.206;2024-03-02T06:20:38;1.75;;;1.65;;
83214;SDS011;73102;46.294;18.206;2024-03-02T06:22:01;4.35;;;3.00;;
83214;SDS011;73102;46.294;18.206;2024-03-02T06:23:21;0.47;;;0.47;;
83214;SDS011;73102;46.294;18.206;2024-03-02T06:24:42;2.17;;;1.40;;
83214;SDS011;73102;46.294;18.206;2024-03-02T06:26:01;0.13;;;0.13;;
83214;SDS011;73102;46.294;18.206;2024-03-02T06:27:22;0.10;;;0.10;;
83214;SDS011;73102;46.294;18.206;2024-03-02T06:28:42;0.30;;;0.30;;
83214;SDS011;73102;46.294;18.206;2024-03-02T06:30:03;4.30;;;3.80;;
83214;SDS011;73102;46.294;18.206;2024-03-02T06:31:23;1.08;;;0.55;;
83214;SDS011;73102;46.294;18.206;2024-03-02T06:32:44;1.73;;;1.65;;
83214;SDS011;73102;46.294;18.206;2024-03-02T06:34:04;0.50;;;0.50;;
83214;SDS011;73102;46.294;18.206;2024-03-02T06:35:25;0.17;;;0.17;;
83214;SDS011;73102;46.294;18.206;2024-03-02T06:36:45;4.40;;;1.42;;
83214;SDS011;73102;46.294;18.206;2024-03-02T06:38:05;1.08;;;1.08;;
83214;SDS011;73102;46.294;18.206;2024-03-02T06:39:25;0.00;;;0.00;;
83214;SDS011;73102;46.294;18.206;2024-03-02T06:40:46;7.70;;;6.03;;
83214;SDS011;73102;46.294;18.206;2024-03-02T06:42:06;12.50;;;6.32;;
83214;SDS011;73102;46.294;18.206;2024-03-02T06:43:26;0.65;;;0.38;;
83214;SDS011;73102;46.294;18.206;2024-03-02T06:44:46;0.05;;;0.05;;
83214;SDS011;73102;46.294;18.206;2024-03-02T06:46:06;2.72;;;0.80;;
83214;SDS011;73102;46.294;18.206;2024-03-02T06:47:28;3.47;;;1.35;;
83214;SDS011;73102;46.294;18.206;2024-03-02T06:50:09;0.00;;;0.00;;
83214;SDS011;73102;46.294;18.206;2024-03-02T06:51:29;0.08;;;0.08;;
83214;SDS011;73102;46.294;18.206;2024-03-02T06:52:49;0.00;;;0.00;;
83214;SDS011;73102;46.294;18.206;2024-03-02T06:54:10;0.05;;;0.05;;
83214;SDS011;73102;46.294;18.206;2024-03-02T06:55:30;0.03;;;0.03;;
83214;SDS011;73102;46.294;18.206;2024-03-02T06:56:50;0.10;;;0.10;;
83214;SDS011;73102;46.294;18.206;2024-03-02T06:58:14;0.08;;;0.08;;
83214;SDS011;73102;46.294;18.206;2024-03-02T06:59:35;1.48;;;1.48;;
83214;SDS011;73102;46.294;18.206;2024-03-02T07:00:55;0.13;;;0.13;;
83214;SDS011;73102;46.294;18.206;2024-03-02T07:02:15;0.00;;;0.00;;
83214;SDS011;73102;46.294;18.206;2024-03-02T07:03:36;2.08;;;1.95;;
83214;SDS011;73102;46.294;18.206;2024-03-02T07:04:58;6.63;;;4.50;;
83214;SDS011;73102;46.294;18.206;2024-03-02T07:06:18;4.55;;;3.28;;
83214;SDS011;73102;46.294;18.206;2024-03-02T07:07:39;8.77;;;4.53;;
83214;SDS011;73102;46.294;18.206;2024-03-02T07:08:59;0.00;;;0.00;;
83214;SDS011;73102;46.294;18.206;2024-03-02T07:10:19;1.55;;;0.95;;
83214;SDS011;73102;46.294;18.206;2024-03-02T07:11:40;0.98;;;0.22;;
83214;SDS011;73102;46.294;18.206;2024-03-02T07:13:01;3.03;;;1.02;;
83214;SDS011;73102;46.294;18.206;2024-03-02T07:14:21;0.00;;;0.00;;
83214;SDS011;73102;46.294;18.206;2024-03-02T07:16:01;0.00;;;0.00;;
83214;SDS011;73102;46.294;18.206;2024-03-02T07:17:40;0.00;;;0.00;;
83214;SDS011;73102;46.294;18.206;2024-03-02T07:19:00;4.30;;;3.80;;
83214;SDS011;73102;46.294;18.206;2024-03-02T07:20:21;2.63;;;2.47;;
83214;SDS011;73102;46.294;18.206;2024-03-02T07:21:41;2.83;;;2.63;;
83214;SDS011;73102;46.294;18.206;2024-03-02T07:23:01;2.67;;;2.47;;
83214;SDS011;73102;46.294;18.206;2024-03-02T07:24:22;2.35;;;2.25;;
83214;SDS011;73102;46.294;18.206;2024-03-02T07:25:41;0.00;;;0.00;;
83214;SDS011;73102;46.294;18.206;2024-03-02T07:27:02;0.10;;;0.10;;
83214;SDS011;73102;46.294;18.206;2024-03-02T07:28:23;0.00;;;0.00;;
83214;SDS011;73102;46.294;18.206;2024-03-02T07:29:43;2.10;;;0.85;;
83214;SDS011;73102;46.294;18.206;2024-03-02T07:31:04;5.30;;;1.40;;
83214;SDS011;73102;46.294;18.206;2024-03-02T07:33:44;10.93;;;7.55;;
83214;SDS011;73102;46.294;18.206;2024-03-02T07:35:08;26.45;;;19.70;;
83214;SDS011;73102;46.294;18.206;2024-03-02T07:36:28;28.50;;;25.98;;
83214;SDS011;73102;46.294;18.206;2024-03-02T07:37:48;20.48;;;18.45;;
83214;SDS011;73102;46.294;18.206;2024-03-02T07:39:08;23.60;;;21.17;;
83214;SDS011;73102;46.294;18.206;2024-03-02T07:40:28;22.17;;;20.15;;
83214;SDS011;73102;46.294;18.206;2024-03-02T07:41:49;4.80;;;4.60;;
83214;SDS011;73102;46.294;18.206;2024-03-02T07:43:09;12.00;;;10.95;;
83214;SDS011;73102;46.294;18.206;2024-03-02T07:44:30;6.85;;;6.28;;
83214;SDS011;73102;46.294;18.206;2024-03-02T07:45:51;9.15;;;8.40;;
83214;SDS011;73102;46.294;18.206;2024-03-02T07:47:11;4.75;;;4.28;;
83214;SDS011;73102;46.294;18.206;2024-03-02T07:48:31;10.25;;;9.63;;
83214;SDS011;73102;46.294;18.206;2024-03-02T07:49:51;0.00;;;0.00;;
83214;SDS011;73102;46.294;18.206;2024-03-02T07:51:12;5.97;;;5.40;;
83214;SDS011;73102;46.294;18.206;2024-03-02T07:52:33;11.07;;;8.80;;
83214;SDS011;73102;46.294;18.206;2024-03-02T07:53:53;1.60;;;1.45;;
83214;SDS011;73102;46.294;18.206;2024-03-02T07:55:14;4.05;;;3.85;;
83214;SDS011;73102;46.294;18.206;2024-03-02T07:56:34;19.73;;;6.35;;
83214;SDS011;73102;46.294;18.206;2024-03-02T07:57:55;5.35;;;3.45;;
83214;SDS011;73102;46.294;18.206;2024-03-02T07:59:15;0.60;;;0.60;;
83214;SDS011;73102;46.294;18.206;2024-03-02T08:00:35;0.00;;;0.00;;
83214;SDS011;73102;46.294;18.206;2024-03-02T08:01:56;2.92;;;1.10;;
83214;SDS011;73102;46.294;18.206;2024-03-02T08:04:37;8.30;;;7.57;;
83214;SDS011;73102;46.294;18.206;2024-03-02T08:05:57;0.10;;;0.10;;
83214;SDS011;73102;46.294;18.206;2024-03-02T08:07:17;2.90;;;2.70;;
83214;SDS011;73102;46.294;18.206;2024-03-02T08:08:37;0.05;;;0.05;;
83214;SDS011;73102;46.294;18.206;2024-03-02T08:09:59;1.75;;;1.65;;
83214;SDS011;73102;46.294;18.206;2024-03-02T08:11:19;0.00;;;0.00;;
83214;SDS011;73102;46.294;18.206;2024-03-02T08:12:40;0.00;;;0.00;;